Ana Sayfa
METAR-TAF:

METAR-TAF

Havaalanları :

Dawson Creek, İngiliz Kolombiyası, Kanada

Enlem: 55-45N, Boylam: 120-11W, yükseklik: 655 m

Güncel hava durumu gözlemi

Rapor saat 02:24 UTC de 23 dakika önce yapıldı.
Rüzgar doğu/kuzeydoğudan 3 kt
Sıcaklık -11°C
Nem 72%
Basınç 1014 hPa
Görüş mesafesi: 4.0 km
2100 ft yükseklikte çok bulutlu
hafif kar

METAR: CYDQ 080224Z AUTO 07003KT 2 1/2SM -SN OVC021 M11/M15 A2994 RMK VIS VRB 1 1/4-3 SLP194

Saat: 19:47 (02:47 UTC)

Tahmin

Rapor saat 02:43 UTC de 4 dakika önce yapıldı.
Ayın 08'si saat 02 UTC'den ayın 08'si saat 05 UTC'ye kadar geçerli Tahmin
Rüzgar kuzeydoğudan 5 kt
Görüş mesafesi: 10 km
3000 ft yükseklikte çok bulutlu
Geçici
ayın 08'si saat 02 UTC'den ayın 08'si saat 05 UTC'ye kadar
Görüş mesafesi: 3.2 km
2000 ft yükseklikte çok bulutlu
hafif kar

TAF: CYDQ 080243Z 0802/0805 05005KT P6SM OVC030 TEMPO 0802/0805 2SM -SN OVC020 RMK FCST BASED ON AUTO OBS. NXT FCST WILL BE ISSUED AT 081245Z

4.000'den fazla havaalanı için hava durumu gözlemleri ve tahminleri (METAR ve TAF raporları).

Kullanılabilir istasyonlar harita üzerinde sarı ve kırmızı noktalarla gösterilir.

İstasyonun adını görmek için fareyi noktanın üzerinde gezdirin.

Sonrasında hava gözlem ve tahminlerini görmek için tıklayın.

Haritayı değiştirmek için: yaklaştırmak için siyah artı işaretli yeşil düğmeye ve uzaklaştırmak için de eksi işaretli düğmeye hızla tıklayın; bitişik haritalar için yeşil okları kullanın.


METAR-TAF: